FWG19G LEMI-LFKF
Flight info
| Callsign | FWG19G |
|---|---|
| Flight time | 1h 32m |
| Altitude | 38000 |
| Route | ALT L150 XENVO T100 PIDUD L129 NINES DCT ASMOT DCT NEGAT |
| Aircraft | A320/M-SDE3FGHIRWY/LB1 |
Departure
| Time | 2026-04-24 07:20 |
|---|---|
| Airport | Region of Murcia International Airport (LEMI) |
Arrival
| Time | 2026-04-24 08:52 |
|---|---|
| Airport | Figari Sud-Corse Airport (LFKF) |
| Time | Latitude | Longitude | Altitude | Speed | Heading |
|---|---|---|---|---|---|
| 2026-04-24 06:56 | 37.80347 | -1.13125 | 655 ft | 0 kts | 315° |
| 2026-04-24 07:10 | 37.80347 | -1.13124 | 655 ft | 0 kts | 315° |
| 2026-04-24 07:10 | 37.80339 | -1.13115 | 655 ft | 2 kts | 318° |
| 2026-04-24 07:10 | 37.80328 | -1.13102 | 654 ft | 1 kts | 314° |
| 2026-04-24 07:11 | 37.80322 | -1.13093 | 654 ft | 2 kts | 308° |
| 2026-04-24 07:11 | 37.80315 | -1.13076 | 653 ft | 2 kts | 287° |
| 2026-04-24 07:11 | 37.80312 | -1.13058 | 652 ft | 2 kts | 269° |
| 2026-04-24 07:11 | 37.80314 | -1.13038 | 651 ft | 2 kts | 252° |
| 2026-04-24 07:12 | 37.80320 | -1.13021 | 651 ft | 2 kts | 234° |
| 2026-04-24 07:12 | 37.80326 | -1.13013 | 651 ft | 1 kts | 224° |
| 2026-04-24 07:12 | 37.80329 | -1.13009 | 651 ft | 0 kts | 225° |
| 2026-04-24 07:14 | 37.80322 | -1.13018 | 651 ft | 5 kts | 226° |
| 2026-04-24 07:15 | 37.80278 | -1.13076 | 652 ft | 10 kts | 226° |
| 2026-04-24 07:15 | 37.80227 | -1.13142 | 654 ft | 10 kts | 226° |
| 2026-04-24 07:15 | 37.80161 | -1.13138 | 652 ft | 12 kts | 137° |
| 2026-04-24 07:15 | 37.80082 | -1.13085 | 647 ft | 14 kts | 202° |
| 2026-04-24 07:16 | 37.80009 | -1.13173 | 647 ft | 14 kts | 226° |
| 2026-04-24 07:16 | 37.79937 | -1.13265 | 648 ft | 14 kts | 225° |
| 2026-04-24 07:16 | 37.79863 | -1.13361 | 648 ft | 15 kts | 226° |
| 2026-04-24 07:16 | 37.79785 | -1.13461 | 647 ft | 16 kts | 226° |
| 2026-04-24 07:17 | 37.79698 | -1.13572 | 645 ft | 18 kts | 226° |
| 2026-04-24 07:17 | 37.79608 | -1.13688 | 645 ft | 19 kts | 226° |
| 2026-04-24 07:17 | 37.79509 | -1.13815 | 641 ft | 17 kts | 225° |
| 2026-04-24 07:17 | 37.79447 | -1.13848 | 639 ft | 1 kts | 157° |
| 2026-04-24 07:18 | 37.79446 | -1.13847 | 639 ft | 1 kts | 154° |
| 2026-04-24 07:18 | 37.79409 | -1.13806 | 639 ft | 10 kts | 124° |
| 2026-04-24 07:18 | 37.79398 | -1.13709 | 638 ft | 12 kts | 90° |
| 2026-04-24 07:18 | 37.79426 | -1.13612 | 639 ft | 12 kts | 44° |
| 2026-04-24 07:19 | 37.79459 | -1.13571 | 639 ft | 0 kts | 46° |
| 2026-04-24 07:19 | 37.79618 | -1.13368 | 640 ft | 74 kts | 45° |
| 2026-04-24 07:19 | 37.80161 | -1.12668 | 638 ft | 145 kts | 45° |
| 2026-04-24 07:19 | 37.80938 | -1.11657 | 1061 ft | 168 kts | 44° |
| 2026-04-24 07:20 | 37.81760 | -1.10605 | 1880 ft | 170 kts | 42° |
| 2026-04-24 07:20 | 37.82579 | -1.09648 | 2871 ft | 162 kts | 43° |
| 2026-04-24 07:20 | 37.83441 | -1.08656 | 3460 ft | 176 kts | 44° |
| 2026-04-24 07:20 | 37.84377 | -1.07562 | 4006 ft | 193 kts | 45° |
| 2026-04-24 07:21 | 37.85411 | -1.06346 | 4521 ft | 214 kts | 46° |
| 2026-04-24 07:21 | 37.86556 | -1.04989 | 5039 ft | 237 kts | 46° |
| 2026-04-24 07:21 | 37.87803 | -1.03511 | 5673 ft | 256 kts | 46° |
| 2026-04-24 07:21 | 37.89125 | -1.01944 | 6429 ft | 269 kts | 47° |
| 2026-04-24 07:22 | 37.90505 | -1.00306 | 7325 ft | 276 kts | 47° |
| 2026-04-24 07:22 | 37.91911 | -0.98631 | 8240 ft | 282 kts | 46° |
| 2026-04-24 07:22 | 37.93335 | -0.96934 | 9101 ft | 288 kts | 46° |
| 2026-04-24 07:22 | 37.94805 | -0.95181 | 9926 ft | 296 kts | 45° |
| 2026-04-24 07:23 | 37.96310 | -0.93387 | 10725 ft | 304 kts | 45° |
| 2026-04-24 07:23 | 37.97892 | -0.91504 | 11257 ft | 322 kts | 45° |
| 2026-04-24 07:23 | 37.99587 | -0.89486 | 11725 ft | 341 kts | 44° |
| 2026-04-24 07:23 | 38.01345 | -0.87389 | 12184 ft | 358 kts | 44° |
| 2026-04-24 07:24 | 38.03188 | -0.85191 | 12919 ft | 365 kts | 44° |
| 2026-04-24 07:24 | 38.05007 | -0.83020 | 13807 ft | 366 kts | 44° |
| 2026-04-24 07:24 | 38.06859 | -0.80808 | 14666 ft | 368 kts | 44° |
| 2026-04-24 07:24 | 38.08732 | -0.78568 | 15456 ft | 372 kts | 44° |
| 2026-04-24 07:25 | 38.10624 | -0.76304 | 16208 ft | 376 kts | 44° |
| 2026-04-24 07:25 | 38.12537 | -0.74019 | 16921 ft | 381 kts | 44° |
| 2026-04-24 07:25 | 38.14455 | -0.71747 | 17617 ft | 384 kts | 44° |
| 2026-04-24 07:25 | 38.16428 | -0.69409 | 18288 ft | 389 kts | 44° |
| 2026-04-24 07:26 | 38.18409 | -0.67058 | 18895 ft | 395 kts | 44° |
| 2026-04-24 07:26 | 38.20421 | -0.64668 | 19458 ft | 401 kts | 44° |
| 2026-04-24 07:26 | 38.22304 | -0.62209 | 19990 ft | 405 kts | 54° |
| 2026-04-24 07:26 | 38.23604 | -0.59067 | 20548 ft | 407 kts | 73° |
| 2026-04-24 07:27 | 38.24047 | -0.55515 | 21142 ft | 408 kts | 92° |
| 2026-04-24 07:27 | 38.23581 | -0.51974 | 21707 ft | 409 kts | 110° |
| 2026-04-24 07:27 | 38.22266 | -0.48791 | 22274 ft | 409 kts | 126° |
| 2026-04-24 07:27 | 38.20587 | -0.45913 | 22870 ft | 412 kts | 128° |
| 2026-04-24 07:28 | 38.18857 | -0.42981 | 23425 ft | 417 kts | 128° |
| 2026-04-24 07:28 | 38.17122 | -0.40016 | 23987 ft | 420 kts | 128° |
| 2026-04-24 07:28 | 38.15394 | -0.37040 | 24540 ft | 424 kts | 128° |
| 2026-04-24 07:28 | 38.13634 | -0.33994 | 25091 ft | 427 kts | 128° |
| 2026-04-24 07:29 | 38.11881 | -0.30954 | 25615 ft | 431 kts | 128° |
| 2026-04-24 07:29 | 38.10107 | -0.27876 | 26113 ft | 434 kts | 129° |
| 2026-04-24 07:29 | 38.08335 | -0.24802 | 26583 ft | 438 kts | 129° |
| 2026-04-24 07:29 | 38.06535 | -0.21682 | 27040 ft | 441 kts | 129° |
| 2026-04-24 07:30 | 38.04711 | -0.18528 | 27477 ft | 445 kts | 129° |
| 2026-04-24 07:30 | 38.02869 | -0.15342 | 27906 ft | 448 kts | 129° |
| 2026-04-24 07:30 | 38.01034 | -0.12173 | 28315 ft | 451 kts | 129° |
| 2026-04-24 07:30 | 37.99177 | -0.08969 | 28702 ft | 453 kts | 129° |
| 2026-04-24 07:31 | 37.97310 | -0.05750 | 29067 ft | 456 kts | 129° |
| 2026-04-24 07:31 | 37.95425 | -0.02512 | 29400 ft | 458 kts | 129° |
| 2026-04-24 07:31 | 37.93539 | 0.00731 | 29790 ft | 459 kts | 129° |
| 2026-04-24 07:31 | 37.91639 | 0.03998 | 30256 ft | 458 kts | 129° |
| 2026-04-24 07:32 | 37.89749 | 0.07243 | 30689 ft | 457 kts | 129° |
| 2026-04-24 07:32 | 37.87890 | 0.10428 | 31121 ft | 455 kts | 129° |
| 2026-04-24 07:32 | 37.86007 | 0.13652 | 31541 ft | 454 kts | 129° |
| 2026-04-24 07:32 | 37.84143 | 0.16840 | 31970 ft | 452 kts | 129° |
| 2026-04-24 07:33 | 37.82269 | 0.20041 | 32389 ft | 450 kts | 128° |
| 2026-04-24 07:33 | 37.80410 | 0.23217 | 32788 ft | 449 kts | 128° |
| 2026-04-24 07:33 | 37.78576 | 0.26352 | 33183 ft | 448 kts | 128° |
| 2026-04-24 07:33 | 37.76736 | 0.29488 | 33571 ft | 446 kts | 128° |
| 2026-04-24 07:34 | 37.74893 | 0.32629 | 33949 ft | 445 kts | 128° |
| 2026-04-24 07:34 | 37.73063 | 0.35744 | 34318 ft | 443 kts | 128° |
| 2026-04-24 07:34 | 37.71234 | 0.38856 | 34638 ft | 442 kts | 128° |
| 2026-04-24 07:34 | 37.69394 | 0.41985 | 34922 ft | 442 kts | 128° |
| 2026-04-24 07:35 | 37.67571 | 0.45083 | 35175 ft | 441 kts | 128° |
| 2026-04-24 07:35 | 37.65756 | 0.48162 | 35421 ft | 441 kts | 128° |
| 2026-04-24 07:35 | 37.63921 | 0.51272 | 35664 ft | 441 kts | 128° |
| 2026-04-24 07:35 | 37.62083 | 0.54383 | 35895 ft | 442 kts | 128° |
| 2026-04-24 07:36 | 37.60262 | 0.57463 | 36119 ft | 442 kts | 128° |
| 2026-04-24 07:36 | 37.58425 | 0.60566 | 36321 ft | 442 kts | 128° |
| 2026-04-24 07:36 | 37.56586 | 0.63671 | 36521 ft | 444 kts | 128° |
| 2026-04-24 07:36 | 37.54740 | 0.66781 | 36720 ft | 445 kts | 128° |
| 2026-04-24 07:37 | 37.53022 | 0.70017 | 37228 ft | 448 kts | 121° |
| 2026-04-24 07:37 | 37.51712 | 0.73613 | 37374 ft | 451 kts | 111° |
| 2026-04-24 07:37 | 37.50886 | 0.77418 | 37524 ft | 454 kts | 102° |
| 2026-04-24 07:37 | 37.50555 | 0.81359 | 37661 ft | 457 kts | 92° |
| 2026-04-24 07:38 | 37.50734 | 0.85324 | 37780 ft | 460 kts | 83° |
| 2026-04-24 07:38 | 37.51431 | 0.89238 | 37892 ft | 462 kts | 73° |
| 2026-04-24 07:38 | 37.52639 | 0.93002 | 38020 ft | 463 kts | 64° |
| 2026-04-24 07:38 | 37.54118 | 0.96600 | 38025 ft | 463 kts | 63° |
| 2026-04-24 07:39 | 37.57143 | 1.03695 | 38030 ft | 462 kts | 62° |
| 2026-04-24 07:39 | 37.60165 | 1.10869 | 38029 ft | 463 kts | 63° |
| 2026-04-24 07:40 | 37.63144 | 1.18020 | 38029 ft | 463 kts | 63° |
| 2026-04-24 07:40 | 37.66110 | 1.25179 | 38027 ft | 463 kts | 63° |
| 2026-04-24 07:41 | 37.69091 | 1.32395 | 38031 ft | 463 kts | 62° |
| 2026-04-24 07:41 | 37.72148 | 1.39497 | 38032 ft | 462 kts | 57° |
| 2026-04-24 07:42 | 37.76006 | 1.45910 | 38034 ft | 462 kts | 47° |
| 2026-04-24 07:42 | 37.80739 | 1.51341 | 38035 ft | 460 kts | 36° |
| 2026-04-24 07:43 | 37.86132 | 1.55715 | 38042 ft | 460 kts | 29° |
| 2026-04-24 07:43 | 37.91649 | 1.59770 | 38046 ft | 459 kts | 29° |
| 2026-04-24 07:44 | 37.97167 | 1.63854 | 38040 ft | 459 kts | 29° |
| 2026-04-24 07:44 | 38.02664 | 1.67951 | 38043 ft | 459 kts | 30° |
| 2026-04-24 07:45 | 38.08141 | 1.72051 | 38044 ft | 458 kts | 30° |
| 2026-04-24 07:45 | 38.13667 | 1.76195 | 38053 ft | 458 kts | 30° |
| 2026-04-24 07:46 | 38.19160 | 1.80316 | 38058 ft | 457 kts | 30° |
| 2026-04-24 07:46 | 38.24647 | 1.84441 | 38072 ft | 457 kts | 30° |
| 2026-04-24 07:47 | 38.30102 | 1.88554 | 38066 ft | 457 kts | 30° |
| 2026-04-24 07:47 | 38.35577 | 1.92691 | 38075 ft | 457 kts | 30° |
| 2026-04-24 07:48 | 38.41021 | 1.96809 | 38072 ft | 456 kts | 30° |
| 2026-04-24 07:48 | 38.46452 | 2.00929 | 38074 ft | 455 kts | 30° |
| 2026-04-24 07:49 | 38.51875 | 2.05053 | 38081 ft | 454 kts | 30° |
| 2026-04-24 07:49 | 38.57267 | 2.09164 | 38077 ft | 453 kts | 30° |
| 2026-04-24 07:50 | 38.62678 | 2.13297 | 38083 ft | 453 kts | 30° |
| 2026-04-24 07:50 | 38.68008 | 2.17574 | 38081 ft | 453 kts | 33° |
| 2026-04-24 07:51 | 38.73157 | 2.22165 | 38085 ft | 453 kts | 33° |
| 2026-04-24 07:51 | 38.78286 | 2.26787 | 38083 ft | 452 kts | 33° |
| 2026-04-24 07:52 | 38.83421 | 2.31416 | 38098 ft | 452 kts | 33° |
| 2026-04-24 07:52 | 38.88530 | 2.36024 | 38098 ft | 450 kts | 33° |
| 2026-04-24 07:53 | 38.93671 | 2.40668 | 38093 ft | 449 kts | 33° |
| 2026-04-24 07:53 | 38.98762 | 2.45273 | 38097 ft | 449 kts | 33° |
| 2026-04-24 07:54 | 39.03847 | 2.49885 | 38096 ft | 449 kts | 33° |
| 2026-04-24 07:54 | 39.08963 | 2.54534 | 38098 ft | 449 kts | 33° |
| 2026-04-24 07:55 | 39.14040 | 2.59158 | 38100 ft | 449 kts | 33° |
| 2026-04-24 07:55 | 39.19150 | 2.63819 | 38102 ft | 449 kts | 33° |
| 2026-04-24 07:56 | 39.24002 | 2.68816 | 38106 ft | 451 kts | 41° |
| 2026-04-24 07:56 | 39.28331 | 2.74690 | 38111 ft | 452 kts | 49° |
| 2026-04-24 07:57 | 39.32001 | 2.81316 | 38110 ft | 454 kts | 57° |
| 2026-04-24 07:57 | 39.35165 | 2.88300 | 38110 ft | 454 kts | 58° |
| 2026-04-24 07:58 | 39.38319 | 2.95382 | 38107 ft | 454 kts | 58° |
| 2026-04-24 07:58 | 39.41452 | 3.02412 | 38109 ft | 454 kts | 58° |
| 2026-04-24 07:59 | 39.44589 | 3.09455 | 38105 ft | 454 kts | 58° |
| 2026-04-24 07:59 | 39.47741 | 3.16545 | 38109 ft | 454 kts | 58° |
| 2026-04-24 08:00 | 39.50883 | 3.23619 | 38106 ft | 454 kts | 58° |
| 2026-04-24 08:00 | 39.54024 | 3.30716 | 38110 ft | 454 kts | 58° |
| 2026-04-24 08:01 | 39.57158 | 3.37808 | 38109 ft | 453 kts | 58° |
| 2026-04-24 08:01 | 39.60274 | 3.44871 | 38111 ft | 453 kts | 58° |
| 2026-04-24 08:02 | 39.63387 | 3.51950 | 38113 ft | 453 kts | 57° |
| 2026-04-24 08:02 | 39.66491 | 3.59023 | 38120 ft | 453 kts | 57° |
| 2026-04-24 08:03 | 39.69598 | 3.66117 | 38121 ft | 453 kts | 58° |
| 2026-04-24 08:03 | 39.72706 | 3.73230 | 38121 ft | 453 kts | 58° |
| 2026-04-24 08:04 | 39.75806 | 3.80346 | 38123 ft | 453 kts | 58° |
| 2026-04-24 08:04 | 39.78896 | 3.87450 | 38127 ft | 452 kts | 58° |
| 2026-04-24 08:05 | 39.81979 | 3.94555 | 38132 ft | 452 kts | 57° |
| 2026-04-24 08:05 | 39.85050 | 4.01651 | 38138 ft | 452 kts | 57° |
| 2026-04-24 08:06 | 39.88140 | 4.08805 | 38138 ft | 452 kts | 57° |
| 2026-04-24 08:06 | 39.91200 | 4.15907 | 38142 ft | 452 kts | 57° |
| 2026-04-24 08:07 | 39.94260 | 4.23022 | 38139 ft | 452 kts | 57° |
| 2026-04-24 08:07 | 39.97334 | 4.30191 | 38139 ft | 452 kts | 57° |
| 2026-04-24 08:08 | 40.00362 | 4.37268 | 38140 ft | 451 kts | 57° |
| 2026-04-24 08:09 | 40.04935 | 4.47984 | 38137 ft | 451 kts | 57° |
| 2026-04-24 08:09 | 40.07970 | 4.55117 | 38138 ft | 451 kts | 57° |
| 2026-04-24 08:10 | 40.11003 | 4.62264 | 38138 ft | 451 kts | 57° |
| 2026-04-24 08:10 | 40.14018 | 4.69387 | 38134 ft | 450 kts | 57° |
| 2026-04-24 08:11 | 40.17047 | 4.76554 | 38135 ft | 450 kts | 57° |
| 2026-04-24 08:11 | 40.20055 | 4.83694 | 38138 ft | 450 kts | 57° |
| 2026-04-24 08:12 | 40.23053 | 4.90820 | 38141 ft | 450 kts | 57° |
| 2026-04-24 08:12 | 40.26065 | 4.98002 | 38140 ft | 450 kts | 57° |
| 2026-04-24 08:13 | 40.29063 | 5.05165 | 38137 ft | 449 kts | 57° |
| 2026-04-24 08:13 | 40.32048 | 5.12317 | 38142 ft | 449 kts | 57° |
| 2026-04-24 08:14 | 40.35026 | 5.19468 | 38143 ft | 449 kts | 57° |
| 2026-04-24 08:14 | 40.38010 | 5.26648 | 38135 ft | 448 kts | 57° |
| 2026-04-24 08:15 | 40.40978 | 5.33806 | 38145 ft | 448 kts | 57° |
| 2026-04-24 08:15 | 40.43926 | 5.40935 | 38144 ft | 448 kts | 57° |
| 2026-04-24 08:16 | 40.46885 | 5.48108 | 38146 ft | 448 kts | 57° |
| 2026-04-24 08:16 | 40.49845 | 5.55303 | 38149 ft | 448 kts | 57° |
| 2026-04-24 08:17 | 40.52788 | 5.62467 | 38148 ft | 448 kts | 57° |
| 2026-04-24 08:17 | 40.55732 | 5.69650 | 38148 ft | 448 kts | 57° |
| 2026-04-24 08:18 | 40.58686 | 5.76883 | 38137 ft | 448 kts | 57° |
| 2026-04-24 08:18 | 40.61618 | 5.84074 | 38145 ft | 447 kts | 57° |
| 2026-04-24 08:19 | 40.64542 | 5.91265 | 38150 ft | 447 kts | 57° |
| 2026-04-24 08:19 | 40.67448 | 5.98428 | 38148 ft | 447 kts | 57° |
| 2026-04-24 08:20 | 40.70377 | 6.05659 | 38151 ft | 447 kts | 57° |
| 2026-04-24 08:20 | 40.73298 | 6.12895 | 38148 ft | 448 kts | 57° |
| 2026-04-24 08:21 | 40.76191 | 6.20079 | 38143 ft | 447 kts | 57° |
| 2026-04-24 08:21 | 40.79108 | 6.27338 | 38157 ft | 447 kts | 58° |
| 2026-04-24 08:22 | 40.82010 | 6.34577 | 38151 ft | 446 kts | 58° |
| 2026-04-24 08:22 | 40.84917 | 6.41844 | 38145 ft | 446 kts | 58° |
| 2026-04-24 08:23 | 40.87785 | 6.49037 | 38150 ft | 446 kts | 58° |
| 2026-04-24 08:23 | 40.90654 | 6.56248 | 38147 ft | 445 kts | 58° |
| 2026-04-24 08:24 | 40.93534 | 6.63497 | 38144 ft | 445 kts | 58° |
| 2026-04-24 08:24 | 40.96390 | 6.70714 | 38150 ft | 446 kts | 59° |
| 2026-04-24 08:25 | 40.99258 | 6.77972 | 38150 ft | 446 kts | 59° |
| 2026-04-24 08:25 | 41.02122 | 6.85240 | 38141 ft | 446 kts | 59° |
| 2026-04-24 08:26 | 41.04975 | 6.92498 | 38150 ft | 446 kts | 59° |
| 2026-04-24 08:26 | 41.07835 | 6.99796 | 38160 ft | 445 kts | 60° |
| 2026-04-24 08:27 | 41.10674 | 7.07049 | 38167 ft | 445 kts | 60° |
| 2026-04-24 08:27 | 41.13507 | 7.14313 | 38161 ft | 445 kts | 60° |
| 2026-04-24 08:28 | 41.16331 | 7.21573 | 38158 ft | 444 kts | 60° |
| 2026-04-24 08:28 | 41.19149 | 7.28837 | 38152 ft | 445 kts | 60° |
| 2026-04-24 08:29 | 41.21982 | 7.36152 | 38159 ft | 444 kts | 60° |
| 2026-04-24 08:29 | 41.24781 | 7.43398 | 37647 ft | 444 kts | 60° |
| 2026-04-24 08:29 | 41.26191 | 7.47059 | 36987 ft | 442 kts | 60° |
| 2026-04-24 08:30 | 41.27565 | 7.50629 | 36270 ft | 441 kts | 60° |
| 2026-04-24 08:30 | 41.28961 | 7.54261 | 35512 ft | 440 kts | 60° |
| 2026-04-24 08:30 | 41.30350 | 7.57878 | 34761 ft | 439 kts | 60° |
| 2026-04-24 08:30 | 41.31724 | 7.61464 | 34030 ft | 439 kts | 60° |
| 2026-04-24 08:31 | 41.33091 | 7.65030 | 33322 ft | 439 kts | 60° |
| 2026-04-24 08:31 | 41.34473 | 7.68640 | 32565 ft | 439 kts | 60° |
| 2026-04-24 08:31 | 41.35859 | 7.72269 | 31782 ft | 439 kts | 60° |
| 2026-04-24 08:31 | 41.37235 | 7.75873 | 31010 ft | 439 kts | 60° |
| 2026-04-24 08:32 | 41.38595 | 7.79442 | 30249 ft | 438 kts | 60° |
| 2026-04-24 08:32 | 41.39876 | 7.83142 | 29421 ft | 441 kts | 66° |
| 2026-04-24 08:32 | 41.40815 | 7.87005 | 28742 ft | 440 kts | 73° |
| 2026-04-24 08:32 | 41.41405 | 7.90945 | 28159 ft | 440 kts | 79° |
| 2026-04-24 08:33 | 41.41707 | 7.94978 | 27515 ft | 437 kts | 83° |
| 2026-04-24 08:33 | 41.41930 | 7.99017 | 26950 ft | 433 kts | 83° |
| 2026-04-24 08:33 | 41.42133 | 8.02974 | 26380 ft | 429 kts | 83° |
| 2026-04-24 08:33 | 41.42336 | 8.06902 | 25800 ft | 425 kts | 83° |
| 2026-04-24 08:34 | 41.42539 | 8.10810 | 25232 ft | 421 kts | 83° |
| 2026-04-24 08:34 | 41.42741 | 8.14650 | 24663 ft | 418 kts | 83° |
| 2026-04-24 08:34 | 41.42942 | 8.18491 | 24086 ft | 416 kts | 83° |
| 2026-04-24 08:34 | 41.43143 | 8.22300 | 23513 ft | 413 kts | 83° |
| 2026-04-24 08:35 | 41.43342 | 8.26083 | 22930 ft | 410 kts | 83° |
| 2026-04-24 08:35 | 41.43539 | 8.29840 | 22385 ft | 407 kts | 83° |
| 2026-04-24 08:35 | 41.43733 | 8.33571 | 21836 ft | 404 kts | 83° |
| 2026-04-24 08:35 | 41.43923 | 8.37277 | 21296 ft | 401 kts | 83° |
| 2026-04-24 08:36 | 41.44112 | 8.40936 | 20761 ft | 397 kts | 83° |
| 2026-04-24 08:36 | 41.44297 | 8.44592 | 20211 ft | 394 kts | 83° |
| 2026-04-24 08:36 | 41.44480 | 8.48189 | 19690 ft | 391 kts | 83° |
| 2026-04-24 08:36 | 41.44663 | 8.51793 | 19138 ft | 388 kts | 83° |
| 2026-04-24 08:37 | 41.44841 | 8.55359 | 18593 ft | 385 kts | 83° |
| 2026-04-24 08:37 | 41.45019 | 8.58920 | 18040 ft | 382 kts | 84° |
| 2026-04-24 08:37 | 41.45192 | 8.62392 | 17508 ft | 379 kts | 84° |
| 2026-04-24 08:37 | 41.45363 | 8.65888 | 16990 ft | 376 kts | 84° |
| 2026-04-24 08:38 | 41.45531 | 8.69323 | 16459 ft | 373 kts | 84° |
| 2026-04-24 08:38 | 41.45698 | 8.72758 | 15918 ft | 370 kts | 84° |
| 2026-04-24 08:38 | 41.45863 | 8.76170 | 15371 ft | 367 kts | 85° |
| 2026-04-24 08:38 | 41.46024 | 8.79521 | 14875 ft | 363 kts | 85° |
| 2026-04-24 08:39 | 41.46183 | 8.82851 | 14364 ft | 361 kts | 85° |
| 2026-04-24 08:39 | 41.46341 | 8.86169 | 13825 ft | 358 kts | 85° |
| 2026-04-24 08:39 | 41.46494 | 8.89422 | 13329 ft | 354 kts | 85° |
| 2026-04-24 08:39 | 41.46645 | 8.92678 | 12810 ft | 352 kts | 85° |
| 2026-04-24 08:40 | 41.46794 | 8.95909 | 12301 ft | 349 kts | 85° |
| 2026-04-24 08:40 | 41.46942 | 8.99139 | 11777 ft | 346 kts | 85° |
| 2026-04-24 08:40 | 41.47087 | 9.02297 | 11299 ft | 343 kts | 85° |
| 2026-04-24 08:40 | 41.47229 | 9.05434 | 10982 ft | 329 kts | 85° |
| 2026-04-24 08:41 | 41.47359 | 9.08333 | 10791 ft | 300 kts | 85° |
| 2026-04-24 08:41 | 41.47476 | 9.10979 | 10621 ft | 277 kts | 85° |
| 2026-04-24 08:41 | 41.47589 | 9.13497 | 10467 ft | 269 kts | 84° |
| 2026-04-24 08:41 | 41.47700 | 9.15935 | 10325 ft | 263 kts | 84° |
| 2026-04-24 08:42 | 41.47810 | 9.18376 | 10181 ft | 259 kts | 84° |
| 2026-04-24 08:42 | 41.47916 | 9.20747 | 9882 ft | 259 kts | 84° |
| 2026-04-24 08:42 | 41.48022 | 9.23142 | 9546 ft | 259 kts | 85° |
| 2026-04-24 08:42 | 41.48044 | 9.25543 | 9202 ft | 259 kts | 90° |
| 2026-04-24 08:43 | 41.47877 | 9.27931 | 8875 ft | 260 kts | 96° |
| 2026-04-24 08:43 | 41.47601 | 9.30291 | 8562 ft | 259 kts | 96° |
| 2026-04-24 08:43 | 41.47311 | 9.32665 | 8226 ft | 259 kts | 96° |
| 2026-04-24 08:43 | 41.47024 | 9.35005 | 7893 ft | 258 kts | 96° |
| 2026-04-24 08:44 | 41.46759 | 9.37381 | 7526 ft | 256 kts | 91° |
| 2026-04-24 08:44 | 41.47067 | 9.39652 | 7171 ft | 251 kts | 63° |
| 2026-04-24 08:44 | 41.48137 | 9.41444 | 6824 ft | 251 kts | 38° |
| 2026-04-24 08:44 | 41.49712 | 9.42423 | 6442 ft | 253 kts | 12° |
| 2026-04-24 08:45 | 41.51474 | 9.42368 | 6088 ft | 257 kts | 348° |
| 2026-04-24 08:45 | 41.53197 | 9.41728 | 5757 ft | 256 kts | 349° |
| 2026-04-24 08:45 | 41.54942 | 9.41211 | 5436 ft | 255 kts | 349° |
| 2026-04-24 08:45 | 41.56658 | 9.40632 | 5144 ft | 253 kts | 346° |
| 2026-04-24 08:46 | 41.58261 | 9.39953 | 5066 ft | 231 kts | 343° |
| 2026-04-24 08:46 | 41.59713 | 9.39207 | 5007 ft | 217 kts | 340° |
| 2026-04-24 08:46 | 41.61073 | 9.38386 | 4977 ft | 212 kts | 336° |
| 2026-04-24 08:46 | 41.62379 | 9.37476 | 4941 ft | 209 kts | 333° |
| 2026-04-24 08:47 | 41.63582 | 9.36483 | 4883 ft | 199 kts | 323° |
| 2026-04-24 08:47 | 41.64350 | 9.34974 | 4717 ft | 200 kts | 288° |
| 2026-04-24 08:47 | 41.64336 | 9.33129 | 4477 ft | 200 kts | 260° |
| 2026-04-24 08:47 | 41.63893 | 9.31375 | 4275 ft | 200 kts | 244° |
| 2026-04-24 08:48 | 41.63165 | 9.29812 | 4073 ft | 200 kts | 234° |
| 2026-04-24 08:48 | 41.62313 | 9.28346 | 3911 ft | 199 kts | 231° |
| 2026-04-24 08:48 | 41.61424 | 9.26927 | 3624 ft | 198 kts | 230° |
| 2026-04-24 08:48 | 41.60527 | 9.25537 | 3330 ft | 197 kts | 229° |
| 2026-04-24 08:49 | 41.59651 | 9.24191 | 3033 ft | 191 kts | 229° |
| 2026-04-24 08:49 | 41.58798 | 9.22877 | 2745 ft | 183 kts | 229° |
| 2026-04-24 08:49 | 41.57984 | 9.21618 | 2496 ft | 177 kts | 229° |
| 2026-04-24 08:49 | 41.57201 | 9.20408 | 2216 ft | 167 kts | 229° |
| 2026-04-24 08:50 | 41.56471 | 9.19278 | 1966 ft | 156 kts | 229° |
| 2026-04-24 08:50 | 41.55791 | 9.18225 | 1720 ft | 146 kts | 229° |
| 2026-04-24 08:50 | 41.55150 | 9.17234 | 1497 ft | 137 kts | 230° |
| 2026-04-24 08:50 | 41.54530 | 9.16273 | 1304 ft | 135 kts | 231° |
| 2026-04-24 08:51 | 41.53932 | 9.15313 | 1112 ft | 133 kts | 232° |
| 2026-04-24 08:51 | 41.53342 | 9.14369 | 905 ft | 132 kts | 231° |
| 2026-04-24 08:51 | 41.52754 | 9.13453 | 675 ft | 131 kts | 231° |
| 2026-04-24 08:51 | 41.52153 | 9.12541 | 496 ft | 130 kts | 230° |
| 2026-04-24 08:52 | 41.51542 | 9.11643 | 307 ft | 130 kts | 230° |
| 2026-04-24 08:52 | 41.50935 | 9.10742 | 103 ft | 129 kts | 231° |
| 2026-04-24 08:52 | 41.50391 | 9.09934 | 74 ft | 96 kts | 229° |
| 2026-04-24 08:52 | 41.50052 | 9.09446 | 63 ft | 46 kts | 229° |
| 2026-04-24 08:53 | 41.49924 | 9.09300 | 61 ft | 12 kts | 194° |
| 2026-04-24 08:53 | 41.49934 | 9.09265 | 60 ft | 11 kts | 43° |
| 2026-04-24 08:53 | 41.49984 | 9.09341 | 62 ft | 10 kts | 51° |
| 2026-04-24 08:53 | 41.50035 | 9.09421 | 63 ft | 12 kts | 48° |
| 2026-04-24 08:54 | 41.50095 | 9.09508 | 65 ft | 14 kts | 47° |
| 2026-04-24 08:54 | 41.50168 | 9.09614 | 68 ft | 15 kts | 47° |
| 2026-04-24 08:54 | 41.50182 | 9.09703 | 70 ft | 11 kts | 127° |
| 2026-04-24 08:54 | 41.50125 | 9.09779 | 68 ft | 10 kts | 140° |
| 2026-04-24 08:55 | 41.50066 | 9.09816 | 67 ft | 8 kts | 154° |
| 2026-04-24 08:55 | 41.50039 | 9.09839 | 67 ft | 3 kts | 139° |
| 2026-04-24 08:55 | 41.50025 | 9.09855 | 66 ft | 0 kts | 140° |